Check out our new BloomSky Weather System.

Active alerts


No alerts


Thunder radar  blitzortung!


Rain radar more information rain snow radar


Visit our other weather sites:

Template documentation
and downloads

And another site



Weather Underground History page Text

Daily Summary for May 24, 2017 Units:  Metric    English   Both
« Previous Day
Next Day »
Daily Weekly Monthly Yearly Custom
  High: Low: Average:
Temperature: 28.4 °C 14 °C 21.1 °C
Dew Point: 16.6 °C 9.2 °C 12.9 °C
Humidity: 95 % 32 % 64 %
Wind Speed: 17.7 km/h 0 km/h 3.7 km/h
Wind Gust: 33.8 km/h - -
Wind:- - WNW
Pressure: 1011.7 hPa 1006 hPa -
Precipitation: 0 mm    
Historical Graphs
 
 
Tabular Data for May 24, 2017
Time Temperature Dew Point Pressure Wind Wind Speed Wind Gust Humidity Rainfall Rate (Hourly)
00:02 17.7 °C 16.6 °C 1011.7 hPa NNW 3.2 km/h 9.7 km/h 93 % 0 mm
00:07 17.6 °C 16.5 °C 1011.7 hPa NW 1.6 km/h 9.7 km/h 93 % 0 mm
00:12 17.6 °C 16.5 °C 1011.7 hPa WSW 3.2 km/h 9.7 km/h 93 % 0 mm
00:17 17.5 °C 16.4 °C 1011.7 hPa NW 3.2 km/h 16.1 km/h 93 % 0 mm
00:22 17.4 °C 16.3 °C 1011.7 hPa NNW 6.4 km/h 16.1 km/h 93 % 0 mm
00:27 17.4 °C 16.3 °C 1011.7 hPa WNW 3.2 km/h 16.1 km/h 93 % 0 mm
00:32 17.4 °C 16.3 °C 1011.7 hPa NNW 3.2 km/h 14.5 km/h 93 % 0 mm
00:37 17.3 °C 16.2 °C 1011.7 hPa NW 3.2 km/h 14.5 km/h 93 % 0 mm
00:42 17.3 °C 16.2 °C 1011.7 hPa NW 6.4 km/h 11.3 km/h 93 % 0 mm
00:47 17.2 °C 15.9 °C 1011.7 hPa NW 3.2 km/h 11.3 km/h 92 % 0 mm
00:52 17.2 °C 15.9 °C 1011.7 hPa NNW 4.8 km/h 11.3 km/h 92 % 0 mm
00:57 17.1 °C 15.8 °C 1011.4 hPa NNW 3.2 km/h 11.3 km/h 92 % 0 mm
01:02 17 °C 15.9 °C 1011.4 hPa North 1.6 km/h 9.7 km/h 93 % 0 mm
01:07 16.9 °C 15.6 °C 1011.4 hPa WNW 1.6 km/h 9.7 km/h 92 % 0 mm
01:12 16.9 °C 15.6 °C 1011.4 hPa NW 6.4 km/h 9.7 km/h 92 % 0 mm
01:17 16.8 °C 15.5 °C 1011.4 hPa West 3.2 km/h 9.7 km/h 92 % 0 mm
01:22 16.7 °C 15.4 °C 1011.1 hPa WSW 1.6 km/h 8 km/h 92 % 0 mm
01:27 16.6 °C 15.3 °C 1011.1 hPa NW 1.6 km/h 8 km/h 92 % 0 mm
01:32 16.6 °C 15.5 °C 1011.1 hPa NW 1.6 km/h 8 km/h 93 % 0 mm
01:37 16.4 °C 15.3 °C 1011.1 hPa NNW 3.2 km/h 8 km/h 93 % 0 mm
01:42 16.4 °C 15.3 °C 1011.1 hPa NW 4.8 km/h 8 km/h 93 % 0 mm
01:47 16.3 °C 15.2 °C 1010.7 hPa NNW 1.6 km/h 8 km/h 93 % 0 mm
01:52 16.3 °C 15.2 °C 1010.7 hPa Calm   8 km/h 93 % 0 mm
01:57 16.2 °C 15.1 °C 1010.7 hPa NW 3.2 km/h 6.4 km/h 93 % 0 mm
02:02 16.1 °C 15 °C 1010.4 hPa NW 3.2 km/h 6.4 km/h 93 % 0 mm
02:07 16.1 °C 15 °C 1010.4 hPa NNW 4.8 km/h 6.4 km/h 93 % 0 mm
02:12 16.1 °C 14.8 °C 1010.4 hPa West 1.6 km/h 6.4 km/h 92 % 0 mm
02:17 15.9 °C 14.6 °C 1010.4 hPa Calm   6.4 km/h 92 % 0 mm
02:22 15.9 °C 14.8 °C 1010.4 hPa Calm   6.4 km/h 93 % 0 mm
02:27 15.8 °C 14.7 °C 1010.4 hPa West 1.6 km/h 4.8 km/h 93 % 0 mm
02:32 15.7 °C 14.6 °C 1010.4 hPa NNW 1.6 km/h 4.8 km/h 93 % 0 mm
02:37 15.7 °C 14.6 °C 1010 hPa Calm   4.8 km/h 93 % 0 mm
02:42 15.6 °C 14.5 °C 1010 hPa NW 1.6 km/h 4.8 km/h 93 % 0 mm
02:47 15.6 °C 14.5 °C 1010 hPa Calm   4.8 km/h 93 % 0 mm
02:52 15.4 °C 14.3 °C 1010 hPa Calm   4.8 km/h 93 % 0 mm
02:57 15.3 °C 14.2 °C 1010 hPa West 1.6 km/h 3.2 km/h 93 % 0 mm
03:02 15.3 °C 14.2 °C 1010 hPa Calm   4.8 km/h 93 % 0 mm
03:07 15.2 °C 14.1 °C 1010 hPa Calm   4.8 km/h 93 % 0 mm
03:13 15.1 °C 14 °C 1010 hPa Calm   4.8 km/h 93 % 0 mm
03:18 14.9 °C 13.8 °C 1010 hPa Calm   3.2 km/h 93 % 0 mm
03:23 14.9 °C 13.9 °C 1010.4 hPa Calm   3.2 km/h 94 % 0 mm
03:28 14.8 °C 13.8 °C 1010.4 hPa Calm   3.2 km/h 94 % 0 mm
03:33 14.7 °C 13.7 °C 1010.4 hPa Calm   3.2 km/h 94 % 0 mm
03:38 14.6 °C 13.6 °C 1010 hPa Calm   1.6 km/h 94 % 0 mm
03:43 14.6 °C 13.6 °C 1010 hPa Calm   1.6 km/h 94 % 0 mm
03:48 14.6 °C 13.6 °C 1009.7 hPa Calm   1.6 km/h 94 % 0 mm
03:53 14.6 °C 13.6 °C 1009.7 hPa WNW 1.6 km/h 1.6 km/h 94 % 0 mm
03:58 14.5 °C 13.5 °C 1009.7 hPa Calm   3.2 km/h 94 % 0 mm
04:03 14.5 °C 13.5 °C 1010 hPa Calm   3.2 km/h 94 % 0 mm
04:08 14.4 °C 13.4 °C 1009.7 hPa Calm   3.2 km/h 94 % 0 mm
04:13 14.4 °C 13.4 °C 1009.4 hPa Calm   3.2 km/h 94 % 0 mm
04:18 14.3 °C 13.3 °C 1009.4 hPa NW 1.6 km/h 3.2 km/h 94 % 0 mm
04:23 14.4 °C 13.6 °C 1009.4 hPa Calm   3.2 km/h 95 % 0 mm
04:28 14.4 °C 13.4 °C 1009.4 hPa Calm   4.8 km/h 94 % 0 mm
04:33 14.3 °C 13.3 °C 1009 hPa Calm   4.8 km/h 94 % 0 mm
04:38 14.2 °C 13.2 °C 1009 hPa NNW 3.2 km/h 4.8 km/h 94 % 0 mm
04:43 14.2 °C 13.4 °C 1009 hPa NNW 1.6 km/h 4.8 km/h 95 % 0 mm
04:48 14.3 °C 13.5 °C 1009 hPa Calm   4.8 km/h 95 % 0 mm
04:53 14.2 °C 13.2 °C 1009 hPa Calm   4.8 km/h 94 % 0 mm
04:58 14.2 °C 13.2 °C 1009 hPa Calm   4.8 km/h 94 % 0 mm
05:03 14.1 °C 13.3 °C 1009 hPa Calm   4.8 km/h 95 % 0 mm
05:08 14.1 °C 13.3 °C 1009 hPa Calm   3.2 km/h 95 % 0 mm
05:13 14.1 °C 13.3 °C 1009 hPa Calm   3.2 km/h 95 % 0 mm
05:18 14.1 °C 13.3 °C 1009.4 hPa West 3.2 km/h 4.8 km/h 95 % 0 mm
05:23 14 °C 13.2 °C 1009.4 hPa West 3.2 km/h 4.8 km/h 95 % 0 mm
05:28 14.1 °C 13.3 °C 1009.4 hPa WNW 1.6 km/h 8 km/h 95 % 0 mm
05:33 14.1 °C 13.1 °C 1009.4 hPa WNW 3.2 km/h 9.7 km/h 94 % 0 mm
05:38 14.1 °C 13.1 °C 1009.4 hPa North 1.6 km/h 9.7 km/h 94 % 0 mm
05:43 14 °C 13 °C 1009.7 hPa NW 6.4 km/h 9.7 km/h 94 % 0 mm
05:48 14.1 °C 13.1 °C 1009.7 hPa NNW 3.2 km/h 8 km/h 94 % 0 mm
05:53 14.1 °C 13.1 °C 1009.7 hPa NW 3.2 km/h 8 km/h 94 % 0 mm
05:58 14 °C 13 °C 1009.4 hPa Calm   8 km/h 94 % 0 mm
06:03 14 °C 13 °C 1009.7 hPa WNW 1.6 km/h 8 km/h 94 % 0 mm
06:08 14 °C 13 °C 1009.7 hPa NNW 3.2 km/h 8 km/h 94 % 0 mm
06:13 14.1 °C 13 °C 1009.7 hPa WNW 4.8 km/h 8 km/h 93 % 0 mm
06:18 14.1 °C 13 °C 1010 hPa WSW 6.4 km/h 12.9 km/h 93 % 0 mm
06:23 14.1 °C 13 °C 1009.7 hPa NW 4.8 km/h 12.9 km/h 93 % 0 mm
06:28 14.2 °C 12.9 °C 1009.7 hPa NNW 3.2 km/h 12.9 km/h 92 % 0 mm
06:33 14.2 °C 12.9 °C 1010 hPa NNW 1.6 km/h 9.7 km/h 92 % 0 mm
06:38 14.3 °C 12.9 °C 1010 hPa NW 3.2 km/h 9.7 km/h 91 % 0 mm
06:43 14.3 °C 12.9 °C 1010 hPa Calm   9.7 km/h 91 % 0 mm
06:48 14.3 °C 12.9 °C 1009.7 hPa NW 1.6 km/h 8 km/h 91 % 0 mm
06:54 14.4 °C 12.9 °C 1010 hPa NNW 1.6 km/h 8 km/h 91 % 0 mm
06:59 14.4 °C 12.9 °C 1010 hPa West 3.2 km/h 8 km/h 91 % 0 mm
07:04 14.4 °C 12.9 °C 1010 hPa WSW 1.6 km/h 8 km/h 91 % 0 mm
07:09 14.6 °C 13.1 °C 1010 hPa Calm   8 km/h 91 % 0 mm
07:14 14.8 °C 13.3 °C 1010 hPa NNW 1.6 km/h 8 km/h 91 % 0 mm
07:19 15 °C 13.4 °C 1010 hPa Calm   6.4 km/h 90 % 0 mm
07:24 15.2 °C 13.4 °C 1010 hPa NNE 3.2 km/h 6.4 km/h 89 % 0 mm
07:29 15.3 °C 13.5 °C 1010.4 hPa North 4.8 km/h 6.4 km/h 89 % 0 mm
07:34 15.4 °C 13.4 °C 1010 hPa NNW 6.4 km/h 9.7 km/h 88 % 0 mm
07:39 15.6 °C 13.6 °C 1010 hPa SW 4.8 km/h 12.9 km/h 88 % 0 mm
07:44 15.7 °C 13.5 °C 1010 hPa Calm   12.9 km/h 87 % 0 mm
07:49 15.9 °C 13.7 °C 1010.4 hPa NW 6.4 km/h 12.9 km/h 87 % 0 mm
07:54 16.1 °C 13.9 °C 1010 hPa NNW 6.4 km/h 11.3 km/h 87 % 0 mm
07:59 16.2 °C 14 °C 1010 hPa Calm   9.7 km/h 87 % 0 mm
08:04 16.6 °C 14.1 °C 1010 hPa NW 1.6 km/h 9.7 km/h 85 % 0 mm
08:09 16.8 °C 14.1 °C 1010 hPa North 3.2 km/h 9.7 km/h 84 % 0 mm
08:14 16.9 °C 14.2 °C 1010 hPa WNW 4.8 km/h 9.7 km/h 84 % 0 mm
08:19 17.2 °C 14.1 °C 1010 hPa West 4.8 km/h 9.7 km/h 82 % 0 mm
08:24 17.4 °C 14.3 °C 1010 hPa WNW 6.4 km/h 9.7 km/h 82 % 0 mm
08:29 17.7 °C 14.4 °C 1010 hPa WNW 4.8 km/h 9.7 km/h 81 % 0 mm
08:34 18 °C 14.5 °C 1010 hPa Calm   11.3 km/h 80 % 0 mm
08:39 18.3 °C 14.6 °C 1010 hPa West 6.4 km/h 11.3 km/h 79 % 0 mm
08:44 18.4 °C 14.5 °C 1010 hPa NW 1.6 km/h 11.3 km/h 78 % 0 mm
08:50 18.9 °C 15 °C 1010.4 hPa North 3.2 km/h 11.3 km/h 78 % 0 mm
08:54 19.2 °C 15.3 °C 1010.4 hPa Calm   11.3 km/h 78 % 0 mm
08:59 19.2 °C 14.9 °C 1010.4 hPa NW 3.2 km/h 11.3 km/h 76 % 0 mm
09:04 19.6 °C 14.8 °C 1010.4 hPa WNW 4.8 km/h 11.3 km/h 74 % 0 mm
09:09 19.7 °C 14.7 °C 1010.4 hPa WSW 1.6 km/h 11.3 km/h 73 % 0 mm
09:14 19.7 °C 14.5 °C 1010.4 hPa NNW 4.8 km/h 11.3 km/h 72 % 0 mm
09:19 19.6 °C 14.6 °C 1010.7 hPa NNW 3.2 km/h 16.1 km/h 73 % 0 mm
09:24 19.7 °C 14.7 °C 1010.4 hPa NNW 9.7 km/h 16.1 km/h 73 % 0 mm
09:29 20 °C 15 °C 1010.4 hPa South 3.2 km/h 16.1 km/h 73 % 0 mm
09:34 20.4 °C 15.4 °C 1010.7 hPa WSW 4.8 km/h 14.5 km/h 73 % 0 mm
09:40 20.6 °C 14.7 °C 1010.7 hPa North 3.2 km/h 12.9 km/h 69 % 0 mm
09:45 20.6 °C 14.9 °C 1010.7 hPa Calm   11.3 km/h 70 % 0 mm
09:50 20.8 °C 15.1 °C 1010.7 hPa WSW 1.6 km/h 12.9 km/h 70 % 0 mm
09:55 21.4 °C 15.5 °C 1010.7 hPa WNW 14.5 km/h 14.5 km/h 69 % 0 mm
10:00 21.6 °C 15.2 °C 1010.7 hPa Calm   14.5 km/h 67 % 0 mm
10:05 21.8 °C 15.2 °C 1010.7 hPa NW 1.6 km/h 14.5 km/h 66 % 0 mm
10:10 21.8 °C 15.2 °C 1010.7 hPa SSW 1.6 km/h 14.5 km/h 66 % 0 mm
10:15 22.2 °C 15.8 °C 1010.7 hPa SW 3.2 km/h 14.5 km/h 67 % 0 mm
10:20 22.4 °C 15.3 °C 1010.7 hPa NNW 3.2 km/h 14.5 km/h 64 % 0 mm
10:25 22.6 °C 15.4 °C 1010.7 hPa NW 6.4 km/h 12.9 km/h 64 % 0 mm
10:30 22.7 °C 15.3 °C 1010.7 hPa SSW 8 km/h 12.9 km/h 63 % 0 mm
10:35 22.4 °C 14.8 °C 1010.7 hPa NNW 4.8 km/h 16.1 km/h 62 % 0 mm
10:40 22.5 °C 14.9 °C 1010.7 hPa SSE 3.2 km/h 16.1 km/h 62 % 0 mm
10:45 22.9 °C 14.7 °C 1010.7 hPa Calm   14.5 km/h 60 % 0 mm
10:50 22.8 °C 14.9 °C 1010.7 hPa NW 9.7 km/h 12.9 km/h 61 % 0 mm
10:55 22.9 °C 14.7 °C 1010.7 hPa WSW 4.8 km/h 16.1 km/h 60 % 0 mm
11:00 23.2 °C 14.5 °C 1010.7 hPa North 4.8 km/h 16.1 km/h 58 % 0 mm
11:05 23.3 °C 14 °C 1010.4 hPa NW 8 km/h 16.1 km/h 56 % 0 mm
11:10 23.2 °C 13.4 °C 1010.4 hPa WNW 4.8 km/h 17.7 km/h 54 % 0 mm
11:15 23.6 °C 13.2 °C 1010.4 hPa WNW 8 km/h 17.7 km/h 52 % 0 mm
11:20 23.4 °C 13.8 °C 1010.4 hPa NNW 3.2 km/h 17.7 km/h 55 % 0 mm
11:25 23.7 °C 13.6 °C 1010.4 hPa NW 14.5 km/h 17.7 km/h 53 % 0 mm
11:30 23.8 °C 13.4 °C 1010.4 hPa WSW 8 km/h 17.7 km/h 52 % 0 mm
11:35 24.1 °C 12.7 °C 1010.4 hPa NNW 8 km/h 17.7 km/h 49 % 0 mm
11:40 23.9 °C 12.8 °C 1010.4 hPa NNE 3.2 km/h 19.3 km/h 50 % 0 mm
11:45 24.2 °C 12.8 °C 1010 hPa NNW 9.7 km/h 19.3 km/h 49 % 0 mm
11:50 24.2 °C 13.7 °C 1010 hPa NNE 6.4 km/h 19.3 km/h 52 % 0 mm
11:55 24.6 °C 13.5 °C 1010 hPa NNW 6.4 km/h 19.3 km/h 50 % 0 mm
12:00 24.6 °C 13.8 °C 1010 hPa WNW 9.7 km/h 19.3 km/h 51 % 0 mm
12:05 24.7 °C 13.9 °C 1010 hPa WSW 1.6 km/h 16.1 km/h 51 % 0 mm
12:10 25.1 °C 13 °C 1010 hPa SE 1.6 km/h 17.7 km/h 47 % 0 mm
12:15 25.1 °C 13 °C 1010 hPa North 8 km/h 19.3 km/h 47 % 0 mm
12:19 24.9 °C 12.8 °C 1010 hPa North 8 km/h 19.3 km/h 47 % 0 mm
12:24 24.8 °C 13 °C 1009.7 hPa WNW 4.8 km/h 19.3 km/h 48 % 0 mm
12:29 25.2 °C 13.7 °C 1009.7 hPa NE 1.6 km/h 19.3 km/h 49 % 0 mm
12:34 25.6 °C 13.5 °C 1009.7 hPa Calm   17.7 km/h 47 % 0 mm
12:39 25.6 °C 12.8 °C 1009.7 hPa WSW 4.8 km/h 17.7 km/h 45 % 0 mm
12:44 25.6 °C 12.4 °C 1009.4 hPa WNW 8 km/h 17.7 km/h 44 % 0 mm
12:49 25.7 °C 12.2 °C 1009.4 hPa SSE 3.2 km/h 16.1 km/h 43 % 0 mm
12:54 25.9 °C 12.7 °C 1009.4 hPa NNW 8 km/h 22.5 km/h 44 % 0 mm
12:59 26 °C 12.8 °C 1009.4 hPa Calm   22.5 km/h 44 % 0 mm
13:04 26.2 °C 12.3 °C 1009.4 hPa West 11.3 km/h 22.5 km/h 42 % 0 mm
13:09 25.8 °C 11.9 °C 1009.4 hPa North 17.7 km/h 20.9 km/h 42 % 0 mm
13:14 25.8 °C 12.3 °C 1009.4 hPa NNE 6.4 km/h 20.9 km/h 43 % 0 mm
13:19 26.2 °C 12.6 °C 1009 hPa WNW 9.7 km/h 25.7 km/h 43 % 0 mm
13:24 26.1 °C 12.2 °C 1009 hPa NNW 14.5 km/h 25.7 km/h 42 % 0 mm
13:29 26.2 °C 12.6 °C 1009 hPa NNW 4.8 km/h 25.7 km/h 43 % 0 mm
13:34 26.3 °C 12.7 °C 1009 hPa WNW 11.3 km/h 27.4 km/h 43 % 0 mm
13:39 26.8 °C 12.4 °C 1009 hPa NW 3.2 km/h 27.4 km/h 41 % 0 mm
13:44 26.8 °C 12.1 °C 1009 hPa NNE 3.2 km/h 27.4 km/h 40 % 0 mm
13:49 27.1 °C 12.3 °C 1009 hPa NW 4.8 km/h 20.9 km/h 40 % 0 mm
13:54 27.2 °C 12.4 °C 1008.7 hPa NW 11.3 km/h 20.9 km/h 40 % 0 mm
13:59 26.8 °C 12.8 °C 1008.7 hPa NNW 4.8 km/h 20.9 km/h 42 % 0 mm
14:04 26.6 °C 11.1 °C 1008.7 hPa West 8 km/h 19.3 km/h 38 % 0 mm
14:09 26.8 °C 12.4 °C 1008.7 hPa WNW 6.4 km/h 29 km/h 41 % 0 mm
14:14 26.8 °C 12.1 °C 1008.4 hPa WNW 9.7 km/h 29 km/h 40 % 0 mm
14:15 26.8 °C 12.1 °C 1008.4 hPa WNW 14.5 km/h 29 km/h 40 % 0 mm
14:20 26.6 °C 11.1 °C 1008.4 hPa NNW 6.4 km/h 29 km/h 38 % 0 mm
14:25 26.9 °C 11.8 °C 1008.4 hPa WNW 11.3 km/h 20.9 km/h 39 % 0 mm
14:30 27.2 °C 11.6 °C 1008.4 hPa North 9.7 km/h 19.3 km/h 38 % 0 mm
14:35 27.1 °C 11.2 °C 1008.4 hPa NW 9.7 km/h 24.1 km/h 37 % 0 mm
14:40 27.1 °C 11.2 °C 1008.4 hPa WNW 12.9 km/h 24.1 km/h 37 % 0 mm
14:45 27.1 °C 11.6 °C 1008.4 hPa WNW 14.5 km/h 22.5 km/h 38 % 0 mm
14:49 27.2 °C 10.8 °C 1008 hPa NNW 6.4 km/h 22.5 km/h 36 % 0 mm
14:54 27.1 °C 10.7 °C 1008 hPa NW 14.5 km/h 24.1 km/h 36 % 0 mm
14:59 27.3 °C 11.7 °C 1008 hPa West 17.7 km/h 24.1 km/h 38 % 0 mm
15:04 27.2 °C 11.2 °C 1008 hPa NNW 12.9 km/h 24.1 km/h 37 % 0 mm
15:09 27.1 °C 11.2 °C 1008 hPa WSW 12.9 km/h 33.8 km/h 37 % 0 mm
15:14 27.3 °C 12.1 °C 1007.7 hPa NNW 3.2 km/h 33.8 km/h 39 % 0 mm
15:19 27.3 °C 11.7 °C 1007.7 hPa NNW 8 km/h 33.8 km/h 38 % 0 mm
15:24 27.5 °C 12.3 °C 1007.7 hPa NNE 16.1 km/h 25.7 km/h 39 % 0 mm
15:29 27.4 °C 12.2 °C 1007.7 hPa NW 12.9 km/h 25.7 km/h 39 % 0 mm
15:34 27.2 °C 12 °C 1007.3 hPa NW 8 km/h 25.7 km/h 39 % 0 mm
15:35 27.2 °C 11.6 °C 1007.3 hPa WNW 6.4 km/h 25.7 km/h 38 % 0 mm
15:40 27.2 °C 11.6 °C 1007.3 hPa WNW 11.3 km/h 25.7 km/h 38 % 0 mm
15:45 27.4 °C 11.4 °C 1007.3 hPa NW 9.7 km/h 25.7 km/h 37 % 0 mm
15:50 27.3 °C 11.3 °C 1007.3 hPa NW 6.4 km/h 25.7 km/h 37 % 0 mm
15:55 27.3 °C 12.1 °C 1007.3 hPa WNW 6.4 km/h 19.3 km/h 39 % 0 mm
16:00 27.6 °C 12 °C 1007 hPa WNW 12.9 km/h 19.3 km/h 38 % 0 mm
16:05 27.8 °C 11.4 °C 1007 hPa NW 11.3 km/h 22.5 km/h 36 % 0 mm
16:10 27.7 °C 11.3 °C 1007 hPa NE 4.8 km/h 22.5 km/h 36 % 0 mm
16:15 27.7 °C 10.8 °C 1007 hPa West 3.2 km/h 22.5 km/h 35 % 0 mm
16:20 27.9 °C 11.4 °C 1006.7 hPa NW 11.3 km/h 22.5 km/h 36 % 0 mm
16:25 27.9 °C 11 °C 1006.7 hPa NW 8 km/h 22.5 km/h 35 % 0 mm
16:30 28 °C 11.1 °C 1006.7 hPa WNW 6.4 km/h 17.7 km/h 35 % 0 mm
16:35 27.8 °C 10.9 °C 1006.7 hPa NW 11.3 km/h 22.5 km/h 35 % 0 mm
16:40 27.8 °C 10.5 °C 1006.7 hPa NNW 6.4 km/h 22.5 km/h 34 % 0 mm
16:45 28.1 °C 10.3 °C 1006.7 hPa West 8 km/h 22.5 km/h 33 % 0 mm
16:50 28.1 °C 10.8 °C 1006.7 hPa ESE 3.2 km/h 19.3 km/h 34 % 0 mm
16:55 28.3 °C 10.5 °C 1006.7 hPa NNW 6.4 km/h 19.3 km/h 33 % 0 mm
17:00 28.2 °C 10.8 °C 1006.7 hPa NNW 6.4 km/h 14.5 km/h 34 % 0 mm
17:05 28 °C 10.7 °C 1006.7 hPa NNE 11.3 km/h 14.5 km/h 34 % 0 mm
17:10 28.2 °C 10.4 °C 1006.7 hPa SSW 1.6 km/h 17.7 km/h 33 % 0 mm
17:15 28.2 °C 9.9 °C 1006.3 hPa NW 4.8 km/h 19.3 km/h 32 % 0 mm
17:20 28.3 °C 10.5 °C 1006.3 hPa ESE 1.6 km/h 19.3 km/h 33 % 0 mm
17:25 28.3 °C 10.5 °C 1006.3 hPa WSW 9.7 km/h 19.3 km/h 33 % 0 mm
17:30 28.3 °C 10.5 °C 1006.3 hPa NNW 1.6 km/h 14.5 km/h 33 % 0 mm
17:35 28.1 °C 10.3 °C 1006.3 hPa NW 6.4 km/h 19.3 km/h 33 % 0 mm
17:40 28.2 °C 11.3 °C 1006.3 hPa NW 6.4 km/h 19.3 km/h 35 % 0 mm
17:45 28.4 °C 10.6 °C 1006.3 hPa West 1.6 km/h 19.3 km/h 33 % 0 mm
17:50 28.2 °C 9.9 °C 1006.3 hPa WNW 1.6 km/h 16.1 km/h 32 % 0 mm
17:55 28.3 °C 10.5 °C 1006.3 hPa WNW 8 km/h 16.1 km/h 33 % 0 mm
18:00 28.3 °C 10.9 °C 1006 hPa NW 11.3 km/h 14.5 km/h 34 % 0 mm
18:05 28.2 °C 10.4 °C 1006 hPa NNW 4.8 km/h 20.9 km/h 33 % 0 mm
18:10 28.2 °C 10.4 °C 1006 hPa NW 4.8 km/h 20.9 km/h 33 % 0 mm
18:15 28.1 °C 10.3 °C 1006 hPa NW 8 km/h 20.9 km/h 33 % 0 mm
18:21 28.2 °C 10.4 °C 1006 hPa NNW 4.8 km/h 16.1 km/h 33 % 0 mm
18:26 28.1 °C 10.8 °C 1006 hPa NNW 8 km/h 14.5 km/h 34 % 0 mm
18:31 28.2 °C 10.8 °C 1006 hPa Calm   14.5 km/h 34 % 0 mm
18:36 28.1 °C 10.3 °C 1006 hPa NW 4.8 km/h 12.9 km/h 33 % 0 mm
18:41 28.2 °C 10.4 °C 1006 hPa NNW 3.2 km/h 11.3 km/h 33 % 0 mm
18:51 28.1 °C 10.3 °C 1006 hPa NNW 9.7 km/h 11.3 km/h 33 % 0 mm
18:56 27.8 °C 9.6 °C 1006 hPa WNW 6.4 km/h 14.5 km/h 32 % 0 mm
19:01 27.8 °C 10.5 °C 1006 hPa NW 1.6 km/h 14.5 km/h 34 % 0 mm
19:06 27.8 °C 9.6 °C 1006 hPa NNW 4.8 km/h 14.5 km/h 32 % 0 mm
19:11 27.7 °C 9.5 °C 1006 hPa NW 3.2 km/h 12.9 km/h 32 % 0 mm
19:16 27.4 °C 9.2 °C 1006 hPa NNW 4.8 km/h 9.7 km/h 32 % 0 mm
19:21 27.2 °C 10 °C 1006 hPa NW 1.6 km/h 9.7 km/h 34 % 0 mm
19:26 26.9 °C 9.7 °C 1006 hPa NW 1.6 km/h 9.7 km/h 34 % 0 mm
19:31 26.8 °C 9.6 °C 1006 hPa NW 3.2 km/h 6.4 km/h 34 % 0 mm
19:36 26.6 °C 10.3 °C 1006 hPa NW 3.2 km/h 6.4 km/h 36 % 0 mm
19:41 26.4 °C 9.7 °C 1006 hPa Calm   6.4 km/h 35 % 0 mm
19:46 26.3 °C 10 °C 1006 hPa NW 1.6 km/h 6.4 km/h 36 % 0 mm
19:51 26.3 °C 10 °C 1006 hPa Calm   6.4 km/h 36 % 0 mm
19:56 26.1 °C 10.7 °C 1006 hPa Calm   3.2 km/h 38 % 0 mm
20:01 25.7 °C 10.3 °C 1006 hPa Calm   3.2 km/h 38 % 0 mm
20:06 25.5 °C 10.9 °C 1006 hPa Calm   3.2 km/h 40 % 0 mm
20:11 25.1 °C 10.6 °C 1006.3 hPa Calm   3.2 km/h 40 % 0 mm
20:16 24.7 °C 10.6 °C 1006.3 hPa Calm   1.6 km/h 41 % 0 mm
20:18 24.6 °C 10.8 °C 1006.3 hPa Calm   1.6 km/h 42 % 0 mm
20:23 24.2 °C 10.5 °C 1006.3 hPa Calm     42 % 0 mm
20:24 24.2 °C 10.8 °C 1006.3 hPa Calm     43 % 0 mm
20:29 23.8 °C 10.8 °C 1006.3 hPa Calm   1.6 km/h 44 % 0 mm
20:34 23.5 °C 11.2 °C 1006.3 hPa Calm   1.6 km/h 46 % 0 mm
20:39 23.3 °C 11 °C 1006.3 hPa Calm   1.6 km/h 46 % 0 mm
20:44 22.9 °C 11 °C 1006.3 hPa Calm   1.6 km/h 47 % 0 mm
20:49 22.6 °C 11 °C 1006.3 hPa Calm   1.6 km/h 48 % 0 mm
20:54 22.1 °C 10.6 °C 1006.7 hPa Calm     48 % 0 mm
20:59 21.6 °C 11 °C 1006.7 hPa Calm     51 % 0 mm
21:04 21.4 °C 11.1 °C 1006.7 hPa Calm     52 % 0 mm
21:09 21.3 °C 11 °C 1006.7 hPa Calm     52 % 0 mm
21:14 21.2 °C 11.2 °C 1006.7 hPa Calm     53 % 0 mm
21:19 21.2 °C 11.2 °C 1006.7 hPa Calm     53 % 0 mm
21:24 21.1 °C 11.4 °C 1006.7 hPa Calm     54 % 0 mm
21:29 20.9 °C 11.5 °C 1006.7 hPa Calm     55 % 0 mm
21:34 20.8 °C 11.7 °C 1006.7 hPa Calm     56 % 0 mm
21:39 20.7 °C 12.1 °C 1006.7 hPa Calm     58 % 0 mm
21:44 20.7 °C 12.1 °C 1007 hPa Calm     58 % 0 mm
21:46 20.6 °C 12.3 °C 1007 hPa Calm     59 % 0 mm
21:51 20.4 °C 12.4 °C 1007 hPa Calm     60 % 0 mm
21:56 20.3 °C 12.5 °C 1007 hPa Calm     61 % 0 mm
22:01 20.2 °C 12.7 °C 1007 hPa Calm     62 % 0 mm
22:06 20.1 °C 12.6 °C 1007 hPa Calm     62 % 0 mm
22:11 20 °C 12.7 °C 1007 hPa Calm     63 % 0 mm
22:17 19.9 °C 12.6 °C 1007 hPa Calm     63 % 0 mm
22:22 19.8 °C 12.6 °C 1007 hPa Calm     63 % 0 mm
22:27 19.6 °C 12.6 °C 1007 hPa Calm   1.6 km/h 64 % 0 mm
22:32 19.4 °C 12.4 °C 1007.3 hPa Calm   1.6 km/h 64 % 0 mm
22:37 19.3 °C 12.8 °C 1007.3 hPa Calm   1.6 km/h 66 % 0 mm
22:42 19.3 °C 13 °C 1007.3 hPa Calm     67 % 0 mm
22:47 19.2 °C 12.9 °C 1007.3 hPa Calm   1.6 km/h 67 % 0 mm
22:52 19.1 °C 12.8 °C 1007.3 hPa Calm   1.6 km/h 67 % 0 mm
22:57 18.9 °C 13.1 °C 1007.3 hPa Calm   1.6 km/h 69 % 0 mm
23:02 18.8 °C 13 °C 1007.3 hPa Calm     69 % 0 mm
23:07 18.7 °C 13.1 °C 1007.3 hPa Calm     70 % 0 mm
23:12 18.6 °C 13 °C 1007.3 hPa Calm   1.6 km/h 70 % 0 mm
23:17 18.4 °C 12.8 °C 1007.3 hPa Calm   1.6 km/h 70 % 0 mm
23:22 18.3 °C 13 °C 1007.3 hPa Calm   1.6 km/h 71 % 0 mm
23:27 18.1 °C 12.8 °C 1007.3 hPa Calm     71 % 0 mm
23:32 18 °C 12.9 °C 1007.3 hPa Calm     72 % 0 mm
23:37 18 °C 12.9 °C 1007.3 hPa Calm     72 % 0 mm
23:42 17.8 °C 12.7 °C 1007.3 hPa Calm     72 % 0 mm
23:47 17.9 °C 13 °C 1007.3 hPa Calm     73 % 0 mm
23:52 17.8 °C 12.9 °C 1007.3 hPa Calm     73 % 0 mm
23:57 17.7 °C 13 °C 1007.3 hPa Calm     74 % 0 mm
Spring, Texas: Villages of Bridgestone
Compliments of Weather Underground - 2.75 mb

Script developed by  Jim McMurry - jmcmurry@mwt.net Adapted for the template by  Wim van der Kuil - Leuven-Template.eu

You find our weather info also at:

UK Metoffice

WeatherCloud

Weather Underground

Mid-South Weather Network

AWEKAS

Citizen Weather Observer Program (CWOP)

HAMweather, WeatherForYou, PWS Weather

Equipment we use:

Weather-station
Davis Vantage Vue

Weather-program
Meteohub

Weather-server
Debian 7.9 x86 (Guest)

Provider
DreamHost

Davis Vantage Vue

Meteohub

Debian 7.9 x86 (Guest)

DreamHost